createdAt,value
2022-07-26T00:01:03.186Z,100552.03
2022-07-26T00:03:31.105Z,100562.34
2022-07-26T00:05:59.943Z,100572.34
2022-07-26T00:08:27.759Z,100550.47
2022-07-26T00:10:55.593Z,100548.28
2022-07-26T00:13:23.462Z,100538.88
2022-07-26T00:15:53.283Z,100547.75
2022-07-26T00:18:22.566Z,100551.59
2022-07-26T00:20:50.697Z,100543.53
2022-07-26T00:23:19.432Z,100546.31
2022-07-26T00:25:47.667Z,100546.13
2022-07-26T00:28:15.536Z,100552.44
2022-07-26T00:30:44.125Z,100550.03
2022-07-26T00:33:13.354Z,100551.31
2022-07-26T00:35:41.309Z,100547.09
2022-07-26T00:38:09.558Z,100550.69
2022-07-26T00:40:37.397Z,100553.19
2022-07-26T00:43:05.345Z,100558.47
2022-07-26T00:45:33.176Z,100570.13
2022-07-26T00:48:00.998Z,100565.53
2022-07-26T00:50:30.502Z,100571.19
2022-07-26T00:52:58.457Z,100559.13
2022-07-26T00:55:26.355Z,100560.81
2022-07-26T00:57:54.286Z,100551.56
2022-07-26T01:00:27.688Z,100556.69
2022-07-26T01:02:56.676Z,100556.50
2022-07-26T01:05:25.614Z,100563.44
2022-07-26T01:07:56.064Z,100556.88
2022-07-26T01:10:23.894Z,100559.09
2022-07-26T01:12:51.731Z,100554.28
2022-07-26T01:15:19.696Z,100566.06
2022-07-26T01:17:48.110Z,100562.25
2022-07-26T01:20:16.825Z,100570.84
2022-07-26T01:22:46.032Z,100585.00
2022-07-26T01:25:13.927Z,100578.97
2022-07-26T01:27:41.892Z,100582.63
2022-07-26T01:30:13.599Z,100590.03
2022-07-26T01:32:41.448Z,100590.75
2022-07-26T01:35:11.099Z,100587.66
2022-07-26T01:37:38.997Z,100587.16
2022-07-26T01:40:11.236Z,100578.31
2022-07-26T01:42:40.931Z,100589.47
2022-07-26T01:45:10.178Z,100585.38
2022-07-26T01:47:38.381Z,100584.91
2022-07-26T01:50:09.809Z,100579.47
2022-07-26T01:52:39.170Z,100583.41
2022-07-26T01:55:09.385Z,100592.34
2022-07-26T01:57:37.407Z,100599.19
2022-07-26T02:00:07.378Z,100606.25
2022-07-26T02:02:35.477Z,100600.19
2022-07-26T02:05:03.799Z,100596.69
2022-07-26T02:07:34.323Z,100605.69
2022-07-26T02:10:02.196Z,100607.88
2022-07-26T02:12:31.365Z,100597.06
2022-07-26T02:14:59.730Z,100612.25
2022-07-26T02:17:27.796Z,100607.97
2022-07-26T02:19:55.739Z,100612.75
2022-07-26T02:22:23.645Z,100609.34
2022-07-26T02:24:52.121Z,100612.16
2022-07-26T02:27:20.486Z,100606.28
2022-07-26T02:29:49.845Z,100600.78
2022-07-26T02:32:18.250Z,100601.31
2022-07-26T02:34:46.101Z,100594.41
2022-07-26T02:37:13.908Z,100603.28
2022-07-26T02:39:41.827Z,100602.88
2022-07-26T02:42:09.850Z,100601.84
2022-07-26T02:44:37.745Z,100598.03
2022-07-26T02:47:07.112Z,100599.75
2022-07-26T02:49:34.952Z,100594.31
2022-07-26T02:52:02.801Z,100597.00
2022-07-26T02:54:30.618Z,100597.25
2022-07-26T02:56:58.466Z,100592.97
2022-07-26T02:59:26.247Z,100592.38
2022-07-26T03:01:54.217Z,100596.81
2022-07-26T03:04:23.717Z,100591.75
2022-07-26T03:06:51.807Z,100590.41
2022-07-26T03:09:19.682Z,100598.34
2022-07-26T03:11:47.587Z,100600.91
2022-07-26T03:14:15.390Z,100606.75
2022-07-26T03:16:43.213Z,100598.47
2022-07-26T03:19:11.025Z,100596.66
2022-07-26T03:21:40.169Z,100601.59
2022-07-26T03:24:08.707Z,100599.44
2022-07-26T03:26:37.318Z,100601.72
2022-07-26T03:29:05.176Z,100598.84
2022-07-26T03:31:33.042Z,100610.03
2022-07-26T03:34:03.297Z,100607.28
2022-07-26T03:36:31.702Z,100609.56
2022-07-26T03:39:01.036Z,100610.59
2022-07-26T03:41:31.529Z,100614.03
2022-07-26T03:43:59.361Z,100609.94
2022-07-26T03:46:27.524Z,100612.41
2022-07-26T03:48:55.697Z,100610.78
2022-07-26T03:51:23.711Z,100611.69
2022-07-26T03:53:51.827Z,100614.81
2022-07-26T03:56:29.140Z,100615.19
2022-07-26T03:58:58.340Z,100621.13
2022-07-26T04:01:26.560Z,100619.34
2022-07-26T04:03:54.661Z,100617.81
2022-07-26T04:06:23.133Z,100620.09
2022-07-26T04:08:51.250Z,100612.88
2022-07-26T04:11:20.641Z,100617.81
2022-07-26T04:13:48.584Z,100615.81
2022-07-26T04:16:16.412Z,100623.50
2022-07-26T04:18:44.792Z,100613.56
2022-07-26T04:21:12.677Z,100618.19
2022-07-26T04:23:40.568Z,100620.09
2022-07-26T04:26:08.421Z,100620.53
2022-07-26T04:28:37.614Z,100624.00
2022-07-26T04:31:05.545Z,100617.09
2022-07-26T04:33:33.977Z,100614.00
2022-07-26T04:36:03.240Z,100622.34
2022-07-26T04:38:31.173Z,100618.59
2022-07-26T04:40:59.208Z,100618.81
2022-07-26T04:43:27.149Z,100612.31
2022-07-26T04:45:57.381Z,100616.69
2022-07-26T04:48:26.195Z,100611.84
2022-07-26T04:50:54.674Z,100616.72
2022-07-26T04:53:22.754Z,100612.75
2022-07-26T04:55:50.591Z,100615.63
2022-07-26T04:58:19.209Z,100628.78
2022-07-26T05:01:08.997Z,100621.53
2022-07-26T05:03:37.197Z,100625.41
2022-07-26T05:06:05.531Z,100630.81
2022-07-26T05:08:33.485Z,100632.41
2022-07-26T05:11:01.518Z,100635.97
2022-07-26T05:13:29.778Z,100631.41
2022-07-26T05:15:58.459Z,100626.53
2022-07-26T05:18:27.002Z,100635.44
2022-07-26T05:20:58.586Z,100638.69
2022-07-26T05:23:26.438Z,100642.66
2022-07-26T05:25:55.351Z,100644.34
2022-07-26T05:28:23.263Z,100641.16
2022-07-26T05:30:51.458Z,100646.19
2022-07-26T05:33:19.563Z,100647.50
2022-07-26T05:35:47.450Z,100650.03
2022-07-26T05:38:16.609Z,100655.56
2022-07-26T05:40:50.098Z,100651.63
2022-07-26T05:43:18.558Z,100656.41
2022-07-26T05:45:46.494Z,100661.09
2022-07-26T05:48:14.412Z,100665.38
2022-07-26T05:50:42.383Z,100664.81
2022-07-26T05:53:10.315Z,100664.06
2022-07-26T05:55:39.453Z,100665.50
2022-07-26T05:58:07.423Z,100666.13
2022-07-26T06:00:35.400Z,100666.91
2022-07-26T06:03:21.878Z,100662.31
2022-07-26T06:05:50.919Z,100656.91
2022-07-26T06:08:19.851Z,100664.28
2022-07-26T06:10:50.890Z,100674.88
2022-07-26T06:13:18.967Z,100667.59
2022-07-26T06:15:47.578Z,100668.78
2022-07-26T06:18:15.922Z,100668.47
2022-07-26T06:20:46.925Z,100678.03
2022-07-26T06:23:15.388Z,100674.16
2022-07-26T06:25:43.345Z,100673.50
2022-07-26T06:28:12.552Z,100681.59
2022-07-26T06:30:41.188Z,100672.22
2022-07-26T06:33:09.585Z,100673.72
2022-07-26T06:35:39.179Z,100669.81
2022-07-26T06:38:08.322Z,100676.13
2022-07-26T06:40:37.076Z,100675.59
2022-07-26T06:43:05.800Z,100681.78
2022-07-26T06:45:35.281Z,100678.44
2022-07-26T06:48:03.181Z,100684.91
2022-07-26T06:50:31.272Z,100687.69
2022-07-26T06:52:59.134Z,100680.56
2022-07-26T06:55:27.067Z,100683.28
2022-07-26T06:57:54.889Z,100690.13
2022-07-26T07:00:23.417Z,100686.41
2022-07-26T07:02:52.727Z,100692.56
2022-07-26T07:05:20.734Z,100685.03
2022-07-26T07:07:48.683Z,100689.84
2022-07-26T07:10:16.871Z,100694.72
2022-07-26T07:12:47.016Z,100701.81
2022-07-26T07:15:15.216Z,100702.63
2022-07-26T07:17:43.046Z,100705.38
2022-07-26T07:20:13.388Z,100709.00
2022-07-26T07:22:41.221Z,100708.81
2022-07-26T07:25:09.639Z,100707.81
2022-07-26T07:27:37.490Z,100703.03
2022-07-26T07:30:06.711Z,100698.88
2022-07-26T07:32:35.523Z,100696.09
2022-07-26T07:35:03.442Z,100700.91
2022-07-26T07:37:52.961Z,100699.34
2022-07-26T07:40:22.524Z,100704.53
2022-07-26T07:42:50.537Z,100702.53
2022-07-26T07:45:18.881Z,100702.75
2022-07-26T07:47:46.820Z,100694.44
2022-07-26T07:50:14.701Z,100696.47
2022-07-26T07:52:43.877Z,100701.72
2022-07-26T07:55:40.500Z,100691.16
2022-07-26T07:58:00.796Z,100698.41
2022-07-26T08:00:28.747Z,100690.03
2022-07-26T08:02:56.623Z,100691.88
2022-07-26T08:05:24.833Z,100697.22
2022-07-26T08:07:54.242Z,100696.28
2022-07-26T08:10:23.064Z,100696.63
2022-07-26T08:12:51.258Z,100690.81
2022-07-26T08:15:21.204Z,100697.38
2022-07-26T08:17:54.865Z,100686.72
2022-07-26T08:20:25.027Z,100695.28
2022-07-26T08:22:54.768Z,100691.53
2022-07-26T08:25:22.726Z,100690.41
2022-07-26T08:28:03.153Z,100686.81
2022-07-26T08:30:32.161Z,100690.47
2022-07-26T08:33:00.483Z,100699.88
2022-07-26T08:35:30.053Z,100700.47
2022-07-26T08:37:59.773Z,100699.38
2022-07-26T08:40:27.706Z,100702.66
2022-07-26T08:42:58.114Z,100705.88
2022-07-26T08:45:28.913Z,100708.47
2022-07-26T08:48:16.834Z,100704.00
2022-07-26T08:50:45.787Z,100708.75
2022-07-26T08:53:16.565Z,100716.78
2022-07-26T08:56:05.986Z,100717.09
2022-07-26T08:58:36.062Z,100711.13
2022-07-26T09:01:07.821Z,100722.78
2022-07-26T09:03:37.941Z,100718.84
2022-07-26T09:06:18.003Z,100713.56
2022-07-26T09:08:51.142Z,100725.75
2022-07-26T09:11:33.946Z,100717.47
2022-07-26T09:14:05.488Z,100720.00
2022-07-26T09:16:38.646Z,100723.88
2022-07-26T09:19:19.248Z,100720.25
2022-07-26T09:21:47.433Z,100725.63
2022-07-26T09:24:32.482Z,100715.44
2022-07-26T09:27:03.563Z,100715.72
2022-07-26T09:29:32.248Z,100714.75
2022-07-26T09:32:16.823Z,100725.13
2022-07-26T09:34:52.637Z,100728.13
2022-07-26T09:37:35.895Z,100716.47
2022-07-26T09:40:10.419Z,100719.75
2022-07-26T09:42:54.526Z,100715.53
2022-07-26T09:45:22.505Z,100725.19
2022-07-26T09:47:50.562Z,100722.38
2022-07-26T09:50:22.366Z,100718.16
2022-07-26T09:53:08.467Z,100716.91
2022-07-26T09:55:56.159Z,100718.34
2022-07-26T09:58:25.423Z,100719.09
2022-07-26T10:00:53.268Z,100719.84
2022-07-26T10:03:21.102Z,100720.16
2022-07-26T10:05:48.883Z,100728.25
2022-07-26T10:08:18.777Z,100722.75
2022-07-26T10:10:56.609Z,100731.50
2022-07-26T10:13:27.430Z,100726.16
2022-07-26T10:15:56.654Z,100711.41
2022-07-26T10:18:47.274Z,100732.88
2022-07-26T10:21:26.754Z,100726.44
2022-07-26T10:23:57.599Z,100724.50
2022-07-26T10:26:43.149Z,100728.50
2022-07-26T10:29:26.487Z,100731.47
2022-07-26T10:32:20.440Z,100732.44
2022-07-26T10:34:49.159Z,100725.75
2022-07-26T10:37:30.405Z,100726.88
2022-07-26T10:40:22.521Z,100720.75
2022-07-26T10:42:51.702Z,100726.66
2022-07-26T10:45:23.571Z,100723.97
2022-07-26T10:48:24.498Z,100721.13
2022-07-26T10:50:54.812Z,100720.34
2022-07-26T10:53:25.797Z,100718.84
2022-07-26T10:55:56.726Z,100723.03
2022-07-26T10:58:27.958Z,100730.38
2022-07-26T11:00:59.140Z,100721.78
2022-07-26T11:03:38.985Z,100728.41
2022-07-26T11:06:12.997Z,100723.34
2022-07-26T11:08:45.897Z,100722.06
2022-07-26T11:11:28.837Z,100719.94
2022-07-26T11:14:08.357Z,100727.91
2022-07-26T11:16:41.709Z,100718.00
2022-07-26T11:19:21.047Z,100718.28
2022-07-26T11:21:55.759Z,100709.63
2022-07-26T11:24:23.946Z,100700.59
2022-07-26T11:26:52.339Z,100705.22
2022-07-26T11:29:38.445Z,100705.19
2022-07-26T11:32:18.992Z,100712.50
2022-07-26T11:34:47.872Z,100723.03
2022-07-26T11:37:15.981Z,100722.38
2022-07-26T11:39:43.806Z,100727.13
2022-07-26T11:42:16.176Z,100733.47
2022-07-26T11:44:47.830Z,100736.31
2022-07-26T11:47:19.928Z,100732.88
2022-07-26T11:49:51.845Z,100721.91
2022-07-26T11:52:31.089Z,100724.06
2022-07-26T11:54:58.903Z,100715.59
2022-07-26T11:57:31.247Z,100719.38
2022-07-26T12:00:01.647Z,100719.88
2022-07-26T12:02:31.338Z,100722.94
2022-07-26T12:05:16.514Z,100727.63
2022-07-26T12:07:59.403Z,100735.41
2022-07-26T12:10:28.231Z,100746.28
2022-07-26T12:13:13.559Z,100764.19
2022-07-26T12:15:54.351Z,100781.59
2022-07-26T12:18:26.960Z,100810.25
2022-07-26T12:21:04.570Z,100812.84
2022-07-26T12:23:45.666Z,100832.63
2022-07-26T12:26:25.386Z,100841.38
2022-07-26T12:28:53.945Z,100856.34
2022-07-26T12:31:31.924Z,100863.38
2022-07-26T12:34:00.311Z,100873.31
2022-07-26T12:36:29.827Z,100878.50
2022-07-26T12:38:59.617Z,100884.56
2022-07-26T12:41:36.632Z,100885.41
2022-07-26T12:44:05.858Z,100879.00
2022-07-26T12:46:36.691Z,100889.00
2022-07-26T12:49:05.882Z,100888.00
2022-07-26T12:51:34.715Z,100893.63
2022-07-26T12:54:03.463Z,100891.78
2022-07-26T12:56:31.306Z,100886.94
2022-07-26T12:59:01.512Z,100892.25
2022-07-26T13:01:30.933Z,100891.81
2022-07-26T13:04:01.582Z,100896.09
2022-07-26T13:06:29.511Z,100895.41
2022-07-26T13:08:57.438Z,100902.25
2022-07-26T13:11:25.599Z,100894.34
2022-07-26T13:13:53.668Z,100894.75
2022-07-26T13:16:21.611Z,100890.81
2022-07-26T13:18:49.677Z,100898.97
2022-07-26T13:21:18.862Z,100895.03
2022-07-26T13:23:46.777Z,100895.16
2022-07-26T13:26:14.676Z,100895.72
2022-07-26T13:28:42.556Z,100895.97
2022-07-26T13:31:10.814Z,100892.00
2022-07-26T13:33:39.527Z,100899.59
2022-07-26T13:36:07.743Z,100903.13
2022-07-26T13:38:36.962Z,100898.59
2022-07-26T13:41:05.348Z,100896.03
2022-07-26T13:43:33.363Z,100896.91
2022-07-26T13:46:01.290Z,100891.53
2022-07-26T13:48:29.756Z,100892.72
2022-07-26T13:50:58.511Z,100891.91
2022-07-26T13:53:26.842Z,100894.25
2022-07-26T13:55:55.982Z,100897.44
2022-07-26T13:58:23.864Z,100901.09
2022-07-26T14:00:51.810Z,100899.91
2022-07-26T14:03:19.714Z,100909.00
2022-07-26T14:05:47.892Z,100895.19
2022-07-26T14:08:15.746Z,100899.50
2022-07-26T14:10:43.681Z,100897.06
2022-07-26T14:13:13.090Z,100892.19
2022-07-26T14:15:40.943Z,100890.81
2022-07-26T14:18:08.762Z,100892.31
2022-07-26T14:20:37.239Z,100899.72
2022-07-26T14:23:05.067Z,100905.59
2022-07-26T14:25:33.390Z,100894.41
2022-07-26T14:28:01.371Z,100888.22
2022-07-26T14:30:30.651Z,100884.84
2022-07-26T14:32:58.514Z,100886.53
2022-07-26T14:35:26.439Z,100875.25
2022-07-26T14:37:55.159Z,100882.72
2022-07-26T14:40:23.028Z,100887.16
2022-07-26T14:42:50.831Z,100894.81
2022-07-26T14:45:18.685Z,100893.66
2022-07-26T14:47:47.902Z,100895.81
2022-07-26T14:50:16.670Z,100890.56
2022-07-26T14:52:48.445Z,100893.75
2022-07-26T14:55:23.097Z,100903.69
2022-07-26T14:57:52.766Z,100897.25
2022-07-26T15:00:20.622Z,100900.75
2022-07-26T15:02:50.809Z,100907.47
2022-07-26T15:05:19.642Z,100898.34
2022-07-26T15:07:47.959Z,100907.75
2022-07-26T15:10:16.745Z,100901.69
2022-07-26T15:12:45.118Z,100897.00
2022-07-26T15:15:13.185Z,100896.66
2022-07-26T15:17:40.969Z,100894.53
2022-07-26T15:20:10.577Z,100900.00
2022-07-26T15:22:38.466Z,100894.22
2022-07-26T15:25:08.094Z,100887.72
2022-07-26T15:27:36.030Z,100898.41
2022-07-26T15:30:10.107Z,100901.00
2022-07-26T15:32:42.238Z,100903.09
2022-07-26T15:35:14.233Z,100892.34
2022-07-26T15:37:44.554Z,100889.72
2022-07-26T15:40:13.806Z,100892.50
2022-07-26T15:42:45.723Z,100886.97
2022-07-26T15:45:14.661Z,100892.03
2022-07-26T15:47:54.714Z,100891.41
2022-07-26T15:50:26.151Z,100894.56
2022-07-26T15:52:54.349Z,100893.78
2022-07-26T15:55:22.219Z,100892.66
2022-07-26T15:57:50.229Z,100888.66
2022-07-26T16:00:19.126Z,100888.31
2022-07-26T16:02:48.108Z,100893.44
2022-07-26T16:05:17.198Z,100901.88
2022-07-26T16:07:47.817Z,100899.31
2022-07-26T16:10:16.546Z,100900.47
2022-07-26T16:12:44.992Z,100897.31
2022-07-26T16:15:13.771Z,100893.66
2022-07-26T16:17:41.672Z,100895.00
2022-07-26T16:20:10.558Z,100889.81
2022-07-26T16:22:41.017Z,100895.31
2022-07-26T16:25:13.642Z,100880.84
2022-07-26T16:27:43.627Z,100888.28
2022-07-26T16:30:13.476Z,100881.44
2022-07-26T16:32:41.794Z,100889.34
2022-07-26T16:35:11.130Z,100890.25
2022-07-26T16:37:39.897Z,100890.94
2022-07-26T16:40:11.351Z,100887.88
2022-07-26T16:42:39.217Z,100899.56
2022-07-26T16:45:09.687Z,100894.97
2022-07-26T16:47:37.645Z,100898.91
2022-07-26T16:50:06.632Z,100885.81
2022-07-26T16:52:37.767Z,100890.38
2022-07-26T16:55:10.677Z,100892.50
2022-07-26T16:57:40.664Z,100891.69
2022-07-26T17:00:11.864Z,100895.50
2022-07-26T17:02:40.957Z,100894.84
2022-07-26T17:05:10.541Z,100892.66
2022-07-26T17:07:38.795Z,100894.28
2022-07-26T17:10:09.861Z,100897.22
2022-07-26T17:12:39.553Z,100894.53
2022-07-26T17:15:10.278Z,100893.19
2022-07-26T17:17:38.380Z,100894.94
2022-07-26T17:20:08.358Z,100896.69
2022-07-26T17:22:36.175Z,100897.81
2022-07-26T17:25:05.025Z,100902.97
2022-07-26T17:27:32.845Z,100895.13
2022-07-26T17:30:06.537Z,100909.31
2022-07-26T17:32:35.959Z,100909.31
2022-07-26T17:35:03.832Z,100921.47
2022-07-26T17:37:31.680Z,100918.56
2022-07-26T17:40:01.785Z,100920.28
2022-07-26T17:42:31.622Z,100922.22
2022-07-26T17:45:00.739Z,100922.22
2022-07-26T17:47:30.662Z,100932.16
2022-07-26T17:52:49.597Z,100928.84
2022-07-26T17:55:19.452Z,100934.72
2022-07-26T17:57:49.687Z,100933.06
2022-07-26T18:00:21.789Z,100927.19
2022-07-26T18:02:50.344Z,100934.72
2022-07-26T18:05:19.478Z,100928.41
2022-07-26T18:07:47.470Z,100937.56
2022-07-26T18:10:15.406Z,100935.03
2022-07-26T18:12:43.244Z,100936.28
2022-07-26T18:15:12.023Z,100932.09
2022-07-26T18:17:41.314Z,100938.44
2022-07-26T18:20:11.104Z,100933.41
2022-07-26T18:22:39.869Z,100929.03
2022-07-26T18:25:09.017Z,100939.69
2022-07-26T18:27:40.038Z,100947.34
2022-07-26T18:30:09.021Z,100938.28
2022-07-26T18:32:36.864Z,100937.44
2022-07-26T18:35:07.121Z,100935.66
2022-07-26T18:37:37.468Z,100950.41
2022-07-26T18:40:07.305Z,100948.38
2022-07-26T18:42:36.283Z,100958.66
2022-07-26T18:45:04.849Z,100958.00
2022-07-26T18:47:32.777Z,100967.47
2022-07-26T18:50:00.595Z,100959.22
2022-07-26T18:52:32.465Z,100963.75
2022-07-26T18:55:06.555Z,100968.50
2022-07-26T18:57:35.080Z,100958.94
2022-07-26T19:00:04.676Z,100971.06
2022-07-26T19:02:32.729Z,100981.78
2022-07-26T19:05:03.423Z,100991.31
2022-07-26T19:07:32.665Z,100991.09
2022-07-26T19:10:01.292Z,100993.38
2022-07-26T19:12:29.584Z,100996.34
2022-07-26T19:14:59.928Z,100984.94
2022-07-26T19:17:30.163Z,100987.38
2022-07-26T19:20:01.071Z,100991.13
2022-07-26T19:22:30.422Z,100991.38
2022-07-26T19:24:59.668Z,100992.00
2022-07-26T19:27:28.667Z,100993.44
2022-07-26T19:29:57.181Z,100995.41
2022-07-26T19:32:29.048Z,100998.91
2022-07-26T19:35:02.176Z,101001.69
2022-07-26T19:37:30.205Z,101001.69
2022-07-26T19:40:03.632Z,100998.63
2022-07-26T19:42:32.829Z,101005.09
2022-07-26T19:45:01.069Z,101007.38
2022-07-26T19:47:29.746Z,101011.28
2022-07-26T19:49:58.643Z,101004.41
2022-07-26T19:52:26.474Z,101013.91
2022-07-26T19:54:54.537Z,101022.78
2022-07-26T19:57:24.141Z,101020.84
2022-07-26T19:59:51.997Z,101018.56
2022-07-26T20:02:20.045Z,101019.94
2022-07-26T20:04:50.622Z,101025.78
2022-07-26T20:07:19.745Z,101029.38
2022-07-26T20:09:48.129Z,101042.47
2022-07-26T20:12:16.563Z,101041.19
2022-07-26T20:14:49.132Z,101048.91
2022-07-26T20:17:17.604Z,101046.69
2022-07-26T20:19:45.743Z,101053.50
2022-07-26T20:22:13.650Z,101038.56
2022-07-26T20:24:41.539Z,101049.31
2022-07-26T20:27:09.628Z,101052.31
2022-07-26T20:29:37.679Z,101046.84
2022-07-26T20:32:07.985Z,101048.34
2022-07-26T20:34:35.822Z,101049.06
2022-07-26T20:37:04.192Z,101054.75
2022-07-26T20:39:32.201Z,101054.44
2022-07-26T20:42:01.526Z,101061.66
2022-07-26T20:44:29.639Z,101057.22
2022-07-26T20:46:57.551Z,101061.09
2022-07-26T20:49:26.745Z,101068.56
2022-07-26T20:51:54.710Z,101066.84
2022-07-26T20:54:22.659Z,101070.13
2022-07-26T20:56:50.748Z,101065.97
2022-07-26T20:59:18.767Z,101070.47
2022-07-26T21:01:46.719Z,101075.25
2022-07-26T21:04:14.698Z,101080.50
2022-07-26T21:06:44.449Z,101081.69
2022-07-26T21:09:13.028Z,101080.78
2022-07-26T21:11:42.383Z,101075.28
2022-07-26T21:14:10.334Z,101083.25
2022-07-26T21:16:38.764Z,101077.91
2022-07-26T21:19:06.956Z,101082.53
2022-07-26T21:21:38.814Z,101082.78
2022-07-26T21:24:09.481Z,101085.75
2022-07-26T21:26:38.085Z,101081.91
2022-07-26T21:29:06.370Z,101094.59
2022-07-26T21:31:34.869Z,101106.97
2022-07-26T21:34:02.925Z,101103.00
2022-07-26T21:36:30.906Z,101105.69
2022-07-26T21:38:59.222Z,101116.69
2022-07-26T21:41:28.655Z,101118.59
2022-07-26T21:43:56.652Z,101128.50
2022-07-26T21:46:24.843Z,101118.34
2022-07-26T21:48:52.999Z,101125.28
2022-07-26T21:51:21.046Z,101136.22
2022-07-26T21:53:49.138Z,101131.66
2022-07-26T21:56:17.259Z,101122.63
2022-07-26T21:58:47.071Z,101135.41
2022-07-26T22:01:16.195Z,101132.38
2022-07-26T22:03:44.376Z,101146.44
2022-07-26T22:06:13.083Z,101141.50
2022-07-26T22:08:41.311Z,101137.72
2022-07-26T22:11:09.222Z,101150.75
2022-07-26T22:13:37.458Z,101146.25
2022-07-26T22:16:07.725Z,101154.44
2022-07-26T22:18:35.728Z,101166.72
2022-07-26T22:21:03.971Z,101165.28
2022-07-26T22:23:31.831Z,101164.09
2022-07-26T22:26:01.964Z,101162.44
2022-07-26T22:28:30.975Z,101159.84
2022-07-26T22:30:59.329Z,101159.81
2022-07-26T22:33:28.533Z,101157.34
2022-07-26T22:35:56.495Z,101165.88
2022-07-26T22:38:24.460Z,101169.25
2022-07-26T22:40:52.607Z,101159.81
2022-07-26T22:43:20.781Z,101159.41
2022-07-26T22:45:48.704Z,101160.25
2022-07-26T22:48:16.986Z,101167.81
2022-07-26T22:50:46.335Z,101171.19
2022-07-26T22:53:14.344Z,101180.94
2022-07-26T22:55:43.959Z,101184.34
2022-07-26T22:58:11.911Z,101181.59
2022-07-26T23:00:40.074Z,101175.84
2022-07-26T23:03:19.347Z,101178.81
2022-07-26T23:05:50.654Z,101187.91
2022-07-26T23:08:45.741Z,101190.78
2022-07-26T23:11:08.960Z,101193.75
2022-07-26T23:13:37.197Z,101200.81
2022-07-26T23:16:06.193Z,101200.78
2022-07-26T23:18:35.811Z,101192.34
2022-07-26T23:21:05.401Z,101190.22
2022-07-26T23:23:33.704Z,101197.41
2022-07-26T23:26:02.104Z,101192.72
2022-07-26T23:28:35.715Z,101192.31
2022-07-26T23:31:04.530Z,101195.91
2022-07-26T23:33:53.281Z,101195.03
2022-07-26T23:36:23.939Z,101196.47
2022-07-26T23:38:52.151Z,101192.25
2022-07-26T23:41:20.379Z,101190.16
2022-07-26T23:43:48.515Z,101185.78
2022-07-26T23:46:16.773Z,101179.00
2022-07-26T23:48:45.134Z,101179.47
2022-07-26T23:51:13.416Z,101194.00
2022-07-26T23:53:43.261Z,101174.63
2022-07-26T23:56:11.200Z,101180.44
2022-07-26T23:58:39.481Z,101190.59
